Terminal Aerodrome Forecast
Issued by NWS Brownsville, TX

Home | Current Version | Previous Version | Text Only | Print | Product List | Glossary On
Versions: 1 2 3 4 5 6 7 8 9 10 11 12 13 14 15 16 17 18
000
FTUS44 KBRO 012300 RRA
TAFBRO
TAF
KBRO 012341Z 0200/0224 12010KT P6SM SCT030 BKN250
     FM020600 14003KT P6SM SCT020
      TEMPO 0208/0212 BKN020
     FM021200 17005KT P6SM BKN025
     FM021600 18006KT P6SM VCTS BKN035CB
     FM022000 11006KT P6SM SCT040 BKN200=

USA.gov is the U.S. government's official web portal to all federal, state and local government web resources and services.